Time;durP1;ratioP1;P1;durP2;ratioP2;P2;SDS_P1;SDS_P2;PMS_P1;PMS_P2;Temp;Humidity;BMP_temperature;BMP_pressure;BME280_temperature;BME280_humidity;BME280_pressure;Samples;Min_cycle;Max_cycle;Signal;HPM_P1;HPM_P2
2021/12/17 00:04:57;;;;;;;20.15;17.63;;;;;;;18.52;40.08;102847.03;5055044;28;20041;-76
2021/12/17 00:07:27;;;;;;;21.48;19.17;;;;;;;18.52;39.99;102847.03;5053246;28;20053;-76
2021/12/17 00:09:57;;;;;;;19.13;17.10;;;;;;;18.53;39.95;102848.75;5054528;28;20385;-76
2021/12/17 00:12:26;;;;;;;20.27;17.98;;;;;;;18.53;40.03;102832.66;5055112;28;20049;-76
2021/12/17 00:14:54;;;;;;;18.25;16.40;;;;;;;18.54;39.89;102844.25;5053642;28;20041;-76
2021/12/17 00:17:29;;;;;;;19.25;17.40;;;;;;;18.54;39.86;102844.25;5053468;28;20052;-76
2021/12/17 00:51:05;;;;;;;17.92;16.05;;;;;;;18.56;39.77;102868.34;5034165;28;20056;-76
2021/12/17 00:53:18;;;;;;;19.35;17.35;;;;;;;18.55;39.73;102862.06;5036578;28;20049;-76
2021/12/17 00:55:46;;;;;;;17.75;16.05;;;;;;;18.55;39.73;102870.13;5032976;28;20056;-75
2021/12/17 00:58:13;;;;;;;17.85;15.85;;;;;;;18.54;39.74;102863.91;5049393;28;20393;-75
2021/12/17 01:00:41;;;;;;;18.88;17.02;;;;;;;18.54;39.83;102880.00;5041706;28;20445;-75
2021/12/17 01:03:09;;;;;;;17.60;15.85;;;;;;;18.54;39.75;102874.63;5063841;28;20072;-76
2021/12/17 01:05:38;;;;;;;18.92;17.02;;;;;;;18.54;39.75;102873.75;5052030;28;20052;-75
2021/12/17 01:08:07;;;;;;;20.08;17.75;;;;;;;18.54;39.86;102871.06;5036163;28;20055;-75
2021/12/17 01:10:44;;;;;;;17.42;15.75;;;;;;;18.54;39.67;102876.44;5051882;28;20119;-75
2021/12/17 01:13:37;;;;;;;18.35;16.48;;;;;;;18.54;39.61;102876.44;5053492;28;20057;-75
2021/12/17 01:16:22;;;;;;;18.27;16.30;;;;;;;18.53;39.65;102872.91;5051739;28;20044;-75
2021/12/17 01:19:08;;;;;;;18.08;16.02;;;;;;;18.54;39.92;102873.75;5052166;28;20053;-75
2021/12/17 01:36:17;;;;;;;19.85;17.38;;;;;;;18.53;39.46;102893.50;5080127;28;20052;-75
2021/12/17 01:44:07;;;;;;;17.65;15.75;;;;;;;18.51;39.57;102887.31;5053155;28;20048;-75
2021/12/17 01:46:38;;;;;;;18.23;16.35;;;;;;;18.52;39.62;102889.06;5051599;28;20093;-75
2021/12/17 02:00:28;;;;;;;18.33;16.52;;;;;;;18.51;39.64;102871.22;5052094;28;20052;-75
2021/12/17 02:03:00;;;;;;;19.55;17.45;;;;;;;18.51;39.53;102868.53;5049927;28;20052;-75
2021/12/17 02:05:33;;;;;;;18.23;16.20;;;;;;;18.51;39.51;102872.13;5051718;28;20045;-75
2021/12/17 02:08:03;;;;;;;19.45;17.30;;;;;;;18.51;39.45;102868.53;5051595;28;20053;-75
2021/12/17 02:30:21;;;;;;;19.40;16.98;;;;;;;18.49;39.64;102830.22;5041214;28;20048;-75
2021/12/17 02:32:49;;;;;;;19.77;17.77;;;;;;;18.47;39.70;102835.66;5037701;28;20045;-76
2021/12/17 02:37:46;;;;;;;18.80;16.92;;;;;;;18.48;39.76;102831.16;5054187;28;20052;-75
2021/12/17 02:46:25;;;;;;;19.17;17.27;;;;;;;18.45;39.47;102816.09;5053759;28;20405;-75
2021/12/17 02:48:54;;;;;;;19.85;17.80;;;;;;;18.46;39.73;102825.88;5038102;28;20060;-75
2021/12/17 02:51:22;;;;;;;20.05;17.50;;;;;;;18.45;39.80;102829.50;5053537;28;20049;-75
2021/12/17 02:53:51;;;;;;;19.45;17.40;;;;;;;18.45;39.82;102821.44;5037505;28;20611;-75
2021/12/17 02:56:19;;;;;;;19.88;17.40;;;;;;;18.45;39.94;102820.59;5054330;28;20053;-75
2021/12/17 02:58:48;;;;;;;18.00;16.13;;;;;;;18.44;39.72;102819.72;5070452;28;20452;-75
2021/12/17 03:01:15;;;;;;;18.35;16.45;;;;;;;18.44;39.92;102822.41;5039717;28;20053;-75
2021/12/17 03:03:45;;;;;;;19.17;16.92;;;;;;;18.44;39.83;102832.28;5053345;28;20425;-75
2021/12/17 03:06:13;;;;;;;18.63;16.73;;;;;;;18.44;39.84;102832.28;5054712;28;20053;-75
2021/12/17 03:08:40;;;;;;;19.73;17.63;;;;;;;18.44;39.86;102833.13;5054688;28;20385;-76
2021/12/17 03:11:09;;;;;;;18.95;16.95;;;;;;;18.43;39.81;102830.50;5055985;28;20480;-75
2021/12/17 03:13:38;;;;;;;20.52;17.73;;;;;;;18.43;39.97;102833.19;5055777;28;20472;-76
2021/12/17 03:16:21;;;;;;;19.15;17.15;;;;;;;18.42;39.77;102831.47;5038539;28;20049;-76
2021/12/17 03:24:06;;;;;;;18.02;16.25;;;;;;;18.40;39.77;102818.16;5054896;28;20072;-75
2021/12/17 03:26:34;;;;;;;17.67;15.88;;;;;;;18.40;39.75;102811.91;5055770;28;20492;-75
2021/12/17 03:29:07;;;;;;;17.70;15.85;;;;;;;18.39;39.70;102815.53;5060593;28;20059;-75
2021/12/17 03:31:38;;;;;;;18.98;17.08;;;;;;;18.39;39.69;102829.81;5074267;28;20052;-75
2021/12/17 03:34:20;;;;;;;19.13;17.15;;;;;;;18.38;39.69;102824.53;5074022;28;20053;-76
2021/12/17 03:36:56;;;;;;;18.55;16.65;;;;;;;18.38;39.79;102825.38;5074441;28;20059;-75
2021/12/17 03:39:30;;;;;;;19.73;17.70;;;;;;;18.37;39.76;102837.06;5074239;28;20059;-75
2021/12/17 03:42:00;;;;;;;18.40;16.55;;;;;;;18.37;39.67;102857.66;5073017;28;20055;-76
2021/12/17 03:44:33;;;;;;;18.35;16.50;;;;;;;18.36;39.79;102851.44;5034173;28;20058;-76
2021/12/17 03:47:01;;;;;;;18.88;16.85;;;;;;;18.38;39.79;102862.06;5035502;28;20053;-75
2021/12/17 03:49:37;;;;;;;17.55;15.63;;;;;;;18.36;39.65;102848.75;5033757;28;20060;-76
2021/12/17 03:52:07;;;;;;;18.98;16.95;;;;;;;18.36;39.69;102854.09;5034249;28;20053;-76
2021/12/17 03:54:38;;;;;;;18.88;17.00;;;;;;;18.36;39.65;102850.56;5033586;28;20053;-75
2021/12/17 03:57:10;;;;;;;18.92;16.98;;;;;;;18.36;39.75;102847.88;5033421;28;20421;-75
2021/12/17 03:59:43;;;;;;;18.63;16.50;;;;;;;18.36;39.64;102861.28;5033434;28;20053;-76
2021/12/17 04:02:15;;;;;;;17.73;15.80;;;;;;;18.35;39.45;102859.53;5033735;28;20061;-76
2021/12/17 04:04:43;;;;;;;17.65;15.65;;;;;;;18.34;39.56;102855.97;5049983;28;20512;-76
2021/12/17 04:07:29;;;;;;;18.38;16.35;;;;;;;18.35;39.58;102855.06;5055544;28;20097;-75
2021/12/17 04:10:17;;;;;;;17.58;15.80;;;;;;;18.35;39.43;102848.78;5061963;28;20057;-76
2021/12/17 04:13:13;;;;;;;18.20;16.25;;;;;;;18.35;39.50;102856.84;5053644;28;20056;-75
2021/12/17 04:15:43;;;;;;;17.17;15.60;;;;;;;18.35;39.81;102860.41;5053470;28;20040;-75
2021/12/17 04:18:11;;;;;;;19.13;17.05;;;;;;;18.35;39.59;102865.78;5055018;28;20049;-75
2021/12/17 04:20:38;;;;;;;20.77;17.55;;;;;;;18.34;39.57;102858.66;5053603;28;20424;-75
2021/12/17 04:23:06;;;;;;;18.05;16.25;;;;;;;18.35;39.51;102862.19;5053271;28;20049;-75
2021/12/17 04:25:34;;;;;;;18.70;16.85;;;;;;;18.34;39.61;102864.03;5053518;28;20056;-76
2021/12/17 04:28:04;;;;;;;18.27;16.38;;;;;;;18.33;39.56;102862.28;5053536;28;20504;-75
2021/12/17 04:30:32;;;;;;;19.45;17.40;;;;;;;18.34;39.66;102868.53;5073472;28;20404;-75
2021/12/17 04:33:01;;;;;;;18.85;16.90;;;;;;;18.34;39.68;102860.47;5073443;28;20044;-75
2021/12/17 04:35:30;;;;;;;17.27;15.48;;;;;;;18.34;39.74;102871.19;5072852;28;20047;-75
2021/12/17 04:38:04;;;;;;;18.08;15.90;;;;;;;18.34;39.50;102869.38;5073248;28;20071;-75
2021/12/17 04:40:32;;;;;;;19.02;17.02;;;;;;;18.34;39.51;102864.03;5073093;28;20048;-75
2021/12/17 04:43:15;;;;;;;18.80;16.80;;;;;;;18.34;39.59;102861.34;5072629;28;20053;-75
2021/12/17 04:46:02;;;;;;;18.05;16.13;;;;;;;18.33;39.72;102856.94;5072966;28;20048;-76
2021/12/17 04:59:44;;;;;;;18.27;16.40;;;;;;;18.32;39.72;102830.22;5072863;28;19927;-75
2021/12/17 05:02:12;;;;;;;17.42;15.77;;;;;;;18.31;39.72;102823.97;5071691;28;20056;-76
2021/12/17 05:04:51;;;;;;;18.88;16.92;;;;;;;18.31;39.70;102825.75;5062522;28;20045;-75
2021/12/17 05:07:19;;;;;;;18.75;16.25;;;;;;;18.31;39.64;102825.75;5051701;28;20049;-75
2021/12/17 05:10:03;;;;;;;18.35;16.40;;;;;;;18.30;39.53;102830.25;5052051;28;20420;-75
2021/12/17 05:21:08;;;;;;;16.35;14.65;;;;;;;18.29;39.95;102817.81;5030462;28;20049;-75
2021/12/17 05:23:43;;;;;;;18.17;15.77;;;;;;;18.27;39.56;102806.28;5051849;28;20053;-76
2021/12/17 05:26:17;;;;;;;18.73;16.55;;;;;;;18.28;39.73;102830.34;5035669;28;20041;-76
2021/12/17 05:28:53;;;;;;;17.42;15.73;;;;;;;18.26;39.68;102834.91;5057415;28;20404;-76
2021/12/17 05:31:25;;;;;;;17.85;15.98;;;;;;;18.26;39.58;102836.72;5072845;28;20079;-76
2021/12/17 05:33:56;;;;;;;18.63;16.83;;;;;;;18.25;39.67;102837.66;5073354;28;20059;-76
2021/12/17 05:36:30;;;;;;;17.63;15.88;;;;;;;18.25;39.87;102827.81;5056995;28;20051;-76
2021/12/17 05:39:10;;;;;;;18.17;16.05;;;;;;;18.24;39.67;102826.09;5105520;28;20048;-76
2021/12/17 05:41:40;;;;;;;17.63;15.82;;;;;;;18.24;39.73;102841.31;5072047;28;20048;-77
2021/12/17 05:44:28;;;;;;;17.65;15.82;;;;;;;18.23;40.05;102835.09;5060907;28;20071;-76
2021/12/17 05:46:56;;;;;;;19.40;16.33;;;;;;;18.23;39.81;102829.72;5050932;28;20053;-76
2021/12/17 05:49:27;;;;;;;17.42;15.23;;;;;;;18.23;39.79;102831.50;5051550;28;20080;-76
2021/12/17 05:51:58;;;;;;;17.27;15.48;;;;;;;18.23;39.82;102840.44;5051510;28;20049;-76
2021/12/17 05:54:28;;;;;;;18.10;16.20;;;;;;;18.23;39.73;102845.81;5051528;28;20060;-76
2021/12/17 05:56:55;;;;;;;17.55;15.43;;;;;;;18.21;39.90;102847.69;5052357;28;20067;-76
2021/12/17 05:59:32;;;;;;;17.42;15.57;;;;;;;18.21;40.08;102844.13;5051740;28;20056;-76
2021/12/17 06:02:04;;;;;;;18.92;16.77;;;;;;;18.20;39.73;102848.63;5035542;28;20061;-76
2021/12/17 06:04:31;;;;;;;19.40;17.30;;;;;;;18.21;39.72;102846.81;5051166;28;20049;-76
2021/12/17 06:07:03;;;;;;;17.95;15.25;;;;;;;18.21;39.59;102847.69;5049931;28;20484;-76
2021/12/17 06:09:32;;;;;;;17.73;15.82;;;;;;;18.21;39.57;102847.69;5051782;28;20053;-76
2021/12/17 06:12:04;;;;;;;17.35;15.57;;;;;;;18.21;39.49;102847.69;5051542;28;20056;-76
2021/12/17 06:14:31;;;;;;;17.63;15.82;;;;;;;18.21;39.49;102842.31;5051710;28;20057;-76
2021/12/17 06:16:59;;;;;;;18.50;16.42;;;;;;;18.21;39.46;102836.97;5051636;28;20041;-76
2021/12/17 06:19:35;;;;;;;17.45;15.65;;;;;;;18.23;39.34;102834.19;5051736;28;20053;-76
2021/12/17 06:22:04;;;;;;;18.98;16.05;;;;;;;18.21;39.66;102836.97;5051184;28;20049;-76
2021/12/17 06:24:32;;;;;;;17.42;15.52;;;;;;;18.20;39.80;102835.22;5050878;28;20049;-76
2021/12/17 06:27:01;;;;;;;18.88;16.85;;;;;;;18.20;39.73;102837.03;5050876;28;20390;-76
2021/12/17 06:29:29;;;;;;;22.05;16.38;;;;;;;18.20;39.74;102824.50;5061551;28;20059;-76
2021/12/17 06:32:07;;;;;;;21.67;15.75;;;;;;;18.20;39.71;102818.28;5070427;28;20063;-76
2021/12/17 06:34:35;;;;;;;15.95;14.20;;;;;;;18.19;39.72;102820.09;5071741;28;20056;-76
2021/12/17 06:37:04;;;;;;;17.27;15.20;;;;;;;18.19;39.49;102805.78;5071089;28;20059;-76
2021/12/17 06:39:33;;;;;;;17.52;15.77;;;;;;;18.18;39.59;102812.97;5072607;28;20052;-76
2021/12/17 06:42:01;;;;;;;16.98;15.27;;;;;;;18.18;39.57;102804.06;5071056;28;20056;-76
2021/12/17 06:44:29;;;;;;;16.38;14.63;;;;;;;18.16;39.39;102801.47;5071572;28;20048;-76
2021/12/17 06:58:52;;;;;;;16.65;15.05;;;;;;;18.15;39.72;102809.56;5030827;28;20129;-73
2021/12/17 07:21:33;;;;;;;15.25;13.73;;;;;;;18.14;39.63;102837.31;4997812;28;20560;-76
2021/12/17 07:40:54;;;;;;;14.38;12.95;;;;;;;18.12;39.99;102848.13;5072887;28;20059;-76
2021/12/17 07:43:34;;;;;;;13.00;11.63;;;;;;;18.12;39.70;102855.31;5089740;28;20052;-76
2021/12/17 07:46:12;;;;;;;15.65;13.50;;;;;;;18.13;39.56;102855.22;5071083;28;20059;-75
2021/12/17 07:48:40;;;;;;;14.80;11.65;;;;;;;18.12;40.51;102849.94;5073030;28;20452;-75
2021/12/17 07:51:13;;;;;;;12.07;10.90;;;;;;;18.12;40.71;102858.84;5089642;28;20127;-75
2021/12/17 07:53:54;;;;;;;12.57;11.35;;;;;;;18.10;40.77;102858.03;5073621;28;20048;-75
2021/12/17 07:56:25;;;;;;;12.20;11.00;;;;;;;18.10;40.67;102859.88;5089388;28;20052;-75
2021/12/17 07:59:00;;;;;;;15.05;11.20;;;;;;;18.09;40.42;102856.31;5057636;28;20151;-75
2021/12/17 08:01:27;;;;;;;13.60;11.18;;;;;;;18.08;40.23;102845.69;5055819;28;20552;-75
2021/12/17 08:03:55;;;;;;;13.55;12.13;;;;;;;18.06;39.98;102843.06;5072947;28;20044;-75
2021/12/17 08:06:43;;;;;;;13.13;11.32;;;;;;;18.08;39.75;102857.28;4974267;28;20055;-75
2021/12/17 08:09:21;;;;;;;13.55;11.68;;;;;;;18.07;39.53;102852.88;4968820;28;20424;-75
2021/12/17 08:11:55;;;;;;;13.80;11.70;;;;;;;18.06;39.51;102847.56;4957942;28;20055;-75
2021/12/17 08:14:29;;;;;;;14.18;11.40;;;;;;;18.06;39.66;102850.22;4957522;28;20050;-75
2021/12/17 08:25:13;;;;;;;16.15;11.63;;;;;;;18.01;39.27;102829.88;4957741;28;20070;-75
2021/12/17 08:28:02;;;;;;;12.07;10.88;;;;;;;18.00;39.18;102832.66;4956616;28;20310;-75
2021/12/17 08:30:38;;;;;;;11.13;9.93;;;;;;;18.01;39.02;102826.34;4958016;28;20055;-75
2021/12/17 08:33:19;;;;;;;11.65;9.50;;;;;;;18.00;38.97;102819.25;4956992;28;20053;-75
2021/12/17 08:35:49;;;;;;;11.65;10.00;;;;;;;18.00;38.82;102829.97;4957267;28;20538;-76
2021/12/17 08:38:25;;;;;;;10.35;8.90;;;;;;;17.99;38.81;102839.81;4957489;28;20074;-75
2021/12/17 08:40:54;;;;;;;10.82;8.80;;;;;;;18.00;38.68;102844.25;4941592;28;20051;-75
2021/12/17 08:43:23;;;;;;;11.68;9.70;;;;;;;18.00;38.67;102841.56;4962664;28;20056;-75
2021/12/17 08:45:54;;;;;;;11.55;9.18;;;;;;;18.00;38.26;102846.06;5053412;28;20045;-75
2021/12/17 08:48:40;;;;;;;12.80;11.45;;;;;;;17.92;35.90;102848.22;5060831;28;20059;-74
2021/12/17 08:51:28;;;;;;;14.30;12.80;;;;;;;17.68;36.07;102851.09;5052873;28;20053;-74
2021/12/17 08:53:56;;;;;;;14.60;13.20;;;;;;;17.44;36.54;102854.91;5052459;28;20052;-74
2021/12/17 08:56:29;;;;;;;13.55;11.77;;;;;;;17.30;37.15;102861.78;5052876;28;20079;-74
2021/12/17 08:59:01;;;;;;;10.05;8.10;;;;;;;17.32;39.53;102864.38;5036034;28;20049;-74
2021/12/17 09:01:35;;;;;;;9.63;7.85;;;;;;;17.40;39.95;102866.69;5052570;28;20527;-75
2021/12/17 09:04:03;;;;;;;9.82;7.78;;;;;;;17.47;40.16;102865.50;5052689;28;20056;-75
2021/12/17 09:06:35;;;;;;;10.38;8.38;;;;;;;17.53;40.24;102863.38;5052532;28;20523;-75
2021/12/17 09:09:05;;;;;;;9.18;6.93;;;;;;;17.59;40.22;102869.41;5052386;28;20075;-75
2021/12/17 09:11:39;;;;;;;9.02;7.47;;;;;;;17.65;40.23;102869.13;5052191;28;20504;-74
2021/12/17 09:14:14;;;;;;;9.48;7.88;;;;;;;17.68;40.27;102869.84;5052407;28;20045;-74
2021/12/17 09:17:01;;;;;;;7.53;6.65;;;;;;;17.71;40.32;102864.34;5052365;28;20061;-74
2021/12/17 09:19:33;;;;;;;8.50;6.97;;;;;;;17.74;40.40;102869.59;5052661;28;20075;-74
2021/12/17 09:22:07;;;;;;;8.73;7.38;;;;;;;17.77;40.35;102857.84;5052161;28;20071;-74
2021/12/17 09:24:42;;;;;;;7.63;6.82;;;;;;;17.79;40.63;102864.91;5052334;28;20500;-74
2021/12/17 09:27:19;;;;;;;8.05;7.25;;;;;;;17.81;40.57;102864.81;5059318;28;20092;-75
2021/12/17 09:30:11;;;;;;;8.00;6.43;;;;;;;17.83;40.77;102859.41;5060599;28;20064;-75
2021/12/17 09:32:39;;;;;;;7.55;6.00;;;;;;;17.83;40.73;102852.22;5053189;28;20403;-74
2021/12/17 09:35:11;;;;;;;9.45;6.93;;;;;;;17.85;41.01;102853.00;5051542;28;20067;-74
2021/12/17 09:37:39;;;;;;;6.82;6.13;;;;;;;17.86;41.12;102840.47;5051419;28;20056;-75
2021/12/17 09:40:09;;;;;;;9.45;6.28;;;;;;;17.87;41.25;102837.75;5052766;28;20053;-75
2021/12/17 09:42:38;;;;;;;7.28;6.50;;;;;;;17.88;41.39;102831.44;5053332;28;20076;-75
2021/12/17 09:45:07;;;;;;;7.10;6.10;;;;;;;17.88;41.48;102823.41;5053439;28;20044;-74
2021/12/17 09:47:35;;;;;;;6.78;6.13;;;;;;;17.89;41.40;102818.91;5052976;28;20382;-74
2021/12/17 09:50:03;;;;;;;8.60;6.07;;;;;;;17.89;41.63;102824.25;5051971;28;20064;-74
2021/12/17 09:52:31;;;;;;;6.82;6.13;;;;;;;17.90;41.69;102807.22;5053064;28;20404;-74
2021/12/17 09:54:58;;;;;;;7.85;6.00;;;;;;;17.91;41.68;102806.31;5052953;28;20045;-75
2021/12/17 09:57:26;;;;;;;6.05;5.45;;;;;;;17.91;41.71;102809.84;5053240;28;20048;-74
2021/12/17 09:59:54;;;;;;;9.90;5.68;;;;;;;17.91;41.92;102807.19;5053172;28;20056;-74
2021/12/17 10:02:21;;;;;;;6.43;5.82;;;;;;;17.92;41.90;102797.31;5052876;28;20071;-78
2021/12/17 10:04:54;;;;;;;7.80;5.40;;;;;;;17.92;41.99;102784.78;5052752;28;20049;-78
2021/12/17 10:07:24;;;;;;;8.15;6.10;;;;;;;17.93;42.03;102782.97;5053139;28;20045;-78
2021/12/17 10:09:55;;;;;;;6.70;5.50;;;;;;;17.94;42.36;102776.66;5052991;28;20400;-77
2021/12/17 10:12:35;;;;;;;6.15;4.95;;;;;;;17.93;42.15;102781.16;5052924;28;20485;-78
2021/12/17 10:15:11;;;;;;;9.23;5.80;;;;;;;17.94;42.24;102785.56;5051497;28;20064;-78
2021/12/17 10:18:02;;;;;;;6.88;5.45;;;;;;;17.95;42.18;102783.78;5053265;28;20041;-78
2021/12/17 10:20:39;;;;;;;7.53;5.55;;;;;;;17.95;42.14;102784.66;5032005;28;20049;-78
2021/12/17 10:23:09;;;;;;;7.22;6.00;;;;;;;17.94;42.17;102782.88;5052651;28;20413;-78
2021/12/17 10:25:46;;;;;;;6.80;6.10;;;;;;;17.95;42.31;102781.97;5068131;28;20076;-78
2021/12/17 10:28:14;;;;;;;6.20;5.60;;;;;;;17.96;42.29;102774.78;5052922;28;20041;-78
2021/12/17 10:30:45;;;;;;;6.00;5.40;;;;;;;17.96;42.25;102774.78;5052533;28;20481;-77
2021/12/17 10:33:18;;;;;;;6.38;5.20;;;;;;;17.96;42.27;102775.66;5053128;28;20041;-78
2021/12/17 10:35:49;;;;;;;6.40;5.70;;;;;;;17.97;42.39;102763.13;5051266;28;20048;-77
2021/12/17 10:38:23;;;;;;;7.32;5.00;;;;;;;17.96;42.29;102758.72;5052893;28;20044;-78
2021/12/17 10:41:02;;;;;;;6.40;5.50;;;;;;;17.97;42.28;102753.25;5052482;28;20037;-78
2021/12/17 10:43:36;;;;;;;5.85;5.10;;;;;;;17.97;42.22;102753.25;5052454;28;20053;-78
2021/12/17 10:46:20;;;;;;;5.72;5.13;;;;;;;17.97;42.33;102747.03;5052642;28;20049;-78
2021/12/17 10:48:55;;;;;;;5.95;5.35;;;;;;;17.97;42.28;102741.69;5051392;28;20171;-78
2021/12/17 10:51:42;;;;;;;6.30;5.28;;;;;;;17.97;42.27;102731.81;5056372;28;20052;-77
2021/12/17 10:54:12;;;;;;;7.38;5.70;;;;;;;17.97;42.29;102725.59;5054706;28;20049;-78
2021/12/17 10:56:50;;;;;;;9.75;5.03;;;;;;;17.99;42.48;102719.22;5056814;28;20152;-78
2021/12/17 10:59:24;;;;;;;5.38;4.85;;;;;;;17.98;42.41;102716.59;5056312;28;20041;-78
2021/12/17 11:02:00;;;;;;;6.43;5.40;;;;;;;17.99;42.36;102713.00;5054719;28;20060;-79
2021/12/17 11:04:30;;;;;;;7.00;5.43;;;;;;;17.99;42.51;102704.97;5055940;28;20060;-77
2021/12/17 11:06:58;;;;;;;5.97;5.38;;;;;;;17.99;42.45;102713.00;5054777;28;20041;-78
2021/12/17 11:09:31;;;;;;;5.45;4.93;;;;;;;17.99;42.39;102702.28;5056213;28;20108;-78
2021/12/17 11:12:06;;;;;;;6.00;5.10;;;;;;;18.00;42.49;102701.34;5056107;28;20401;-79
2021/12/17 11:14:34;;;;;;;6.22;5.35;;;;;;;17.99;42.49;102692.44;5055805;28;20052;-79
2021/12/17 11:17:02;;;;;;;6.07;5.43;;;;;;;17.99;42.42;102695.13;5053971;28;20417;-79
2021/12/17 11:19:31;;;;;;;5.50;4.78;;;;;;;17.99;42.42;102687.06;5055756;28;20048;-78
2021/12/17 11:21:59;;;;;;;7.38;5.47;;;;;;;17.99;42.46;102681.72;5055939;28;20511;-79
2021/12/17 11:24:26;;;;;;;5.38;4.78;;;;;;;17.98;42.58;102679.94;5055833;28;20064;-79
2021/12/17 11:26:54;;;;;;;7.28;5.85;;;;;;;17.99;42.42;102686.22;5055661;28;20045;-79
2021/12/17 11:29:23;;;;;;;5.00;4.50;;;;;;;17.99;42.38;102686.22;5055525;28;20382;-79
2021/12/17 11:31:51;;;;;;;6.97;5.53;;;;;;;17.98;42.57;102684.44;5054384;28;20052;-79
2021/12/17 11:34:19;;;;;;;6.47;5.50;;;;;;;17.99;42.42;102673.69;5055421;28;20045;-79
2021/12/17 11:36:47;;;;;;;7.03;5.43;;;;;;;18.00;42.40;102669.19;5055032;28;20401;-79
2021/12/17 11:39:23;;;;;;;5.47;4.88;;;;;;;17.99;42.41;102660.28;5055695;28;20105;-78
2021/12/17 11:42:46;;;;;;;6.20;5.05;;;;;;;17.99;42.62;102654.06;5054952;28;20579;-74
2021/12/17 11:45:25;;;;;;;5.50;4.87;;;;;;;17.99;42.49;102649.56;5013497;28;20054;-74
2021/12/17 11:48:17;;;;;;;7.65;5.25;;;;;;;17.99;42.58;102641.53;5013359;28;20295;-74
2021/12/17 11:50:47;;;;;;;6.75;5.30;;;;;;;17.99;42.56;102637.97;5013177;28;20054;-74
2021/12/17 11:53:21;;;;;;;5.65;5.05;;;;;;;17.99;42.61;102627.25;4997076;28;20064;-75
2021/12/17 11:55:57;;;;;;;5.90;4.80;;;;;;;17.99;42.71;102625.44;5013372;28;20054;-74
2021/12/17 11:58:49;;;;;;;5.78;4.85;;;;;;;17.99;42.68;102616.53;4996694;28;20153;-74
2021/12/17 12:01:51;;;;;;;6.70;5.30;;;;;;;17.99;42.73;102611.19;5012396;28;20153;-74
2021/12/17 12:04:32;;;;;;;6.72;5.25;;;;;;;18.00;42.68;102624.47;5013304;28;20532;-74
2021/12/17 12:07:00;;;;;;;5.65;4.63;;;;;;;18.00;42.68;102618.25;5012971;28;20073;-74
2021/12/17 12:10:02;;;;;;;6.38;5.07;;;;;;;18.00;42.80;102610.22;4996235;28;20054;-74
2021/12/17 12:12:34;;;;;;;5.13;4.60;;;;;;;17.99;42.87;102604.00;4996906;28;20382;-74
2021/12/17 12:15:16;;;;;;;6.68;5.78;;;;;;;18.01;43.21;102606.59;5012862;28;20056;-75
2021/12/17 12:18:01;;;;;;;6.47;5.47;;;;;;;18.00;43.65;102608.41;5013133;28;20057;-74
2021/12/17 12:20:40;;;;;;;7.25;5.47;;;;;;;18.00;44.70;102602.19;5051331;28;20057;-74
2021/12/17 12:23:20;;;;;;;7.32;6.43;;;;;;;18.00;45.93;102592.31;5054481;28;20076;-74
2021/12/17 12:26:18;;;;;;;8.10;7.30;;;;;;;18.01;47.39;102577.09;5053186;28;20053;-74
2021/12/17 12:28:48;;;;;;;8.43;7.50;;;;;;;18.01;48.27;102571.75;5012575;28;20057;-75
2021/12/17 12:31:24;;;;;;;9.13;7.22;;;;;;;18.00;48.66;102560.16;5012291;28;20505;-75
2021/12/17 12:34:00;;;;;;;8.52;6.90;;;;;;;18.00;48.77;102560.16;4996246;28;20073;-75
2021/12/17 12:36:52;;;;;;;8.70;7.45;;;;;;;18.00;48.64;102554.81;4996337;28;20517;-76
2021/12/17 12:39:24;;;;;;;6.80;6.10;;;;;;;18.00;48.39;102562.84;5012594;28;20066;-74
2021/12/17 12:42:16;;;;;;;7.50;6.57;;;;;;;18.00;48.37;102560.16;5012324;28;20050;-74
2021/12/17 12:44:49;;;;;;;6.68;5.85;;;;;;;18.01;47.92;102561.88;5012352;28;20054;-74
2021/12/17 12:47:31;;;;;;;8.07;6.55;;;;;;;18.01;47.11;102551.16;5012377;28;20066;-75
2021/12/17 12:50:13;;;;;;;6.47;5.45;;;;;;;18.02;46.88;102541.31;5012044;28;20050;-75
2021/12/17 12:52:45;;;;;;;6.65;5.32;;;;;;;18.02;46.72;102542.19;5012364;28;20066;-74
2021/12/17 12:55:13;;;;;;;6.13;5.50;;;;;;;18.02;46.79;102544.00;5012275;28;20405;-75
2021/12/17 12:58:03;;;;;;;7.68;5.35;;;;;;;18.02;46.58;102544.00;5012156;28;20099;-74
2021/12/17 13:00:41;;;;;;;5.95;5.35;;;;;;;18.01;46.30;102553.84;5011995;28;20053;-75
2021/12/17 13:03:14;;;;;;;5.97;5.38;;;;;;;18.03;46.09;102551.13;5011900;28;20064;-74
2021/12/17 13:05:47;;;;;;;6.53;5.43;;;;;;;18.02;46.06;102549.34;5029155;28;20064;-74
2021/12/17 13:08:16;;;;;;;5.38;4.80;;;;;;;18.03;45.94;102545.75;5053735;28;20060;-74
2021/12/17 13:10:50;;;;;;;5.82;4.97;;;;;;;18.02;45.65;102544.84;5052191;28;20048;-74
2021/12/17 13:13:29;;;;;;;5.65;5.03;;;;;;;18.02;45.59;102538.63;5052255;28;20060;-74
2021/12/17 13:16:12;;;;;;;5.50;4.97;;;;;;;18.03;45.59;102521.63;5052456;28;20048;-74
2021/12/17 13:26:57;;;;;;;5.00;4.50;;;;;;;18.02;45.03;102526.09;5048716;28;20501;-74
2021/12/17 13:29:32;;;;;;;5.35;4.78;;;;;;;18.03;44.91;102527.84;5053097;28;20405;-74
2021/12/17 13:32:02;;;;;;;5.78;4.75;;;;;;;18.03;44.90;102535.91;5053334;28;20042;-74
2021/12/17 13:34:32;;;;;;;4.75;4.25;;;;;;;18.04;44.69;102518.00;5052887;28;20040;-73
2021/12/17 13:36:59;;;;;;;4.97;4.47;;;;;;;18.03;44.60;102492.16;5053423;28;20416;-74
2021/12/17 13:39:35;;;;;;;5.38;4.80;;;;;;;18.04;44.57;102480.47;5053065;28;20045;-74
2021/12/17 13:42:04;;;;;;;5.63;4.95;;;;;;;18.04;44.47;102481.34;5053011;28;20053;-74
2021/12/17 13:44:33;;;;;;;5.65;4.75;;;;;;;18.05;44.57;102479.53;5053048;28;20045;-74
2021/12/17 13:47:42;;;;;;;6.05;5.20;;;;;;;18.05;44.29;102487.56;5052832;28;20052;-74
2021/12/17 13:50:19;;;;;;;6.82;4.82;;;;;;;18.06;44.36;102494.66;5019351;28;20052;-74
2021/12/17 13:53:05;;;;;;;5.00;4.50;;;;;;;18.05;44.24;102492.91;5052727;28;20048;-74
2021/12/17 13:55:37;;;;;;;4.68;4.28;;;;;;;18.08;44.08;102497.25;5052974;28;20071;-74
2021/12/17 13:58:13;;;;;;;6.43;5.00;;;;;;;18.07;44.00;102503.53;5052927;28;20068;-74
2021/12/17 14:00:47;;;;;;;5.25;4.68;;;;;;;18.06;44.17;102488.41;5052759;28;20037;-74
2021/12/17 14:03:16;;;;;;;5.22;4.40;;;;;;;18.06;44.13;102485.75;5053311;28;20397;-74
2021/12/17 14:05:48;;;;;;;4.63;4.22;;;;;;;18.06;44.16;102473.19;5051616;28;20053;-74
2021/12/17 14:08:18;;;;;;;6.82;5.72;;;;;;;18.07;44.04;102474.06;5052911;28;20401;-74
2021/12/17 14:10:48;;;;;;;5.32;4.82;;;;;;;18.07;43.93;102474.06;5052813;28;20048;-74
2021/12/17 14:13:19;;;;;;;5.05;4.55;;;;;;;18.07;43.97;102468.69;5053375;28;20049;-74
2021/12/17 14:16:03;;;;;;;5.47;4.75;;;;;;;18.08;43.72;102465.09;5052791;28;20072;-74
2021/12/17 14:18:31;;;;;;;6.88;4.30;;;;;;;18.07;43.97;102460.66;5052754;28;20056;-74
2021/12/17 14:21:04;;;;;;;5.68;4.47;;;;;;;18.08;43.85;102460.59;5052584;28;20045;-74
2021/12/17 14:23:37;;;;;;;;;;;;;;;18.07;43.92;102464.25;5053292;28;20056;-74
2021/12/17 14:26:09;;;;;;;4.88;4.38;;;;;;;18.07;43.92;102452.63;5056234;28;19921;-74
2021/12/17 14:28:39;;;;;;;5.28;4.40;;;;;;;18.06;43.81;102450.91;5055219;28;20515;-74
2021/12/17 14:31:15;;;;;;;5.57;4.55;;;;;;;18.05;43.89;102450.03;5056490;28;20135;-74
2021/12/17 14:33:52;;;;;;;5.63;5.13;;;;;;;18.05;43.73;102450.03;5056956;28;20113;-74
2021/12/17 14:36:25;;;;;;;5.38;4.45;;;;;;;18.05;43.93;102431.28;5056569;28;20048;-74
2021/12/17 14:39:34;;;;;;;6.07;5.25;;;;;;;18.04;43.77;102435.78;5056391;28;20056;-74
2021/12/17 14:42:04;;;;;;;5.10;4.60;;;;;;;18.04;43.75;102453.69;4998573;28;20050;-74
2021/12/17 14:44:39;;;;;;;5.47;4.47;;;;;;;18.04;43.77;102456.34;5014834;28;20065;-74
2021/12/17 14:47:13;;;;;;;5.70;4.60;;;;;;;18.04;43.81;102442.97;5014570;28;20050;-74
2021/12/17 14:59:33;;;;;;;6.68;5.45;;;;;;;18.02;43.68;102421.59;5014833;28;20157;-74
2021/12/17 15:05:54;;;;;;;5.35;4.43;;;;;;;18.03;43.54;102428.69;5014530;28;20449;-74